Main page
METAR-TAF:

METAR-TAF

Airports :

Hamid Karzai International Airport

Kabul, Afghanistan

latitude: 34-38N, longitude: 069-12E, elevation: 1789 m

Current weather observation

The report was made 38 minutes ago, at 00:50 UTC
Wind 3 kt from the North/Northwest
Temperature 11°C
Humidity 71%
Pressure 1020 hPa
Visibility 10 km or more
Few clouds at a height of 10000 ft

METAR: OAKB 190050Z 34003KT 9999 FEW100 11/06 Q1020 NOSIG RMK A3012 BLU BLU

Time: 05:58 (01:28 UTC)

Forecast

The report was made 2 hours and 23 minutes ago, at 23:05 UTC
Forecast valid from 19 at 00 UTC to 19 at 24 UTC
Wind 2 kt from variable directions
Visibility: 7000 m
Probability 30%
from 19 at 00 UTC to 19 at 03 UTC
Visibility: 4000 m
mist
Becoming
from 19 at 05 UTC to 19 at 07 UTC
Visibility 10 km or more
Few clouds at a height of 10000 ft
Becoming
from 19 at 10 UTC to 19 at 12 UTC
Scattered clouds at a height of 8000 ft

TAF: OAKB 182305Z 1900/1924 VRB02KT 7000 NSC PROB30 1900/1903 4000 BR BECMG 1905/1907 9999 FEW100 BECMG 1910/1912 SCT080

Weather observations and forecasts of more than 4000 airports (METAR and TAF reports).

The available stations are represented by yellow and red dots on the map.

Hover mouse over dot to see the name of the station.

Then click to see weather observations and forecasts.

To change the map : click on the green buttons with a black cross to zoom in, on the green button with a dash to zoom out, or on the green arrows for adjacent maps.


METAR-TAF: